sensor_id;sensor_type;location;lat;lon;timestamp;P1;durP1;ratioP1;P2;durP2;ratioP2
30000;SDS011;16845;48.670;9.000;2023-12-07T00:02:27;15.23;;;10.65;;
30000;SDS011;16845;48.670;9.000;2023-12-07T00:04:54;18.08;;;10.82;;
30000;SDS011;16845;48.670;9.000;2023-12-07T00:07:20;13.50;;;9.73;;
30000;SDS011;16845;48.670;9.000;2023-12-07T00:09:47;15.52;;;9.07;;
30000;SDS011;16845;48.670;9.000;2023-12-07T00:12:14;15.00;;;9.52;;
30000;SDS011;16845;48.670;9.000;2023-12-07T00:14:40;15.67;;;10.17;;
30000;SDS011;16845;48.670;9.000;2023-12-07T00:17:07;17.30;;;10.17;;
30000;SDS011;16845;48.670;9.000;2023-12-07T00:19:35;12.95;;;9.30;;
30000;SDS011;16845;48.670;9.000;2023-12-07T00:22:02;17.10;;;9.43;;
30000;SDS011;16845;48.670;9.000;2023-12-07T00:24:29;15.13;;;9.68;;
30000;SDS011;16845;48.670;9.000;2023-12-07T00:26:55;13.27;;;8.80;;
30000;SDS011;16845;48.670;9.000;2023-12-07T00:29:22;20.40;;;9.98;;
30000;SDS011;16845;48.670;9.000;2023-12-07T00:31:49;15.95;;;10.18;;
30000;SDS011;16845;48.670;9.000;2023-12-07T00:34:15;13.40;;;9.30;;
30000;SDS011;16845;48.670;9.000;2023-12-07T00:36:43;14.35;;;10.35;;
30000;SDS011;16845;48.670;9.000;2023-12-07T00:39:10;13.93;;;9.80;;
30000;SDS011;16845;48.670;9.000;2023-12-07T00:41:36;16.10;;;9.48;;
30000;SDS011;16845;48.670;9.000;2023-12-07T00:44:03;14.30;;;10.23;;
30000;SDS011;16845;48.670;9.000;2023-12-07T00:46:29;13.93;;;10.38;;
30000;SDS011;16845;48.670;9.000;2023-12-07T00:48:56;14.10;;;9.80;;
30000;SDS011;16845;48.670;9.000;2023-12-07T00:51:23;12.10;;;8.15;;
30000;SDS011;16845;48.670;9.000;2023-12-07T00:53:51;15.70;;;10.90;;
30000;SDS011;16845;48.670;9.000;2023-12-07T00:56:17;20.70;;;10.88;;
30000;SDS011;16845;48.670;9.000;2023-12-07T00:58:44;18.77;;;9.90;;
30000;SDS011;16845;48.670;9.000;2023-12-07T01:01:10;17.73;;;10.52;;
30000;SDS011;16845;48.670;9.000;2023-12-07T01:03:37;13.75;;;9.50;;
30000;SDS011;16845;48.670;9.000;2023-12-07T01:06:04;12.77;;;9.15;;
30000;SDS011;16845;48.670;9.000;2023-12-07T01:08:30;14.68;;;9.40;;
30000;SDS011;16845;48.670;9.000;2023-12-07T01:10:58;12.57;;;9.70;;
30000;SDS011;16845;48.670;9.000;2023-12-07T01:13:25;18.52;;;9.77;;
30000;SDS011;16845;48.670;9.000;2023-12-07T01:15:52;16.40;;;10.35;;
30000;SDS011;16845;48.670;9.000;2023-12-07T01:18:18;12.73;;;9.10;;
30000;SDS011;16845;48.670;9.000;2023-12-07T01:20:45;8.57;;;6.93;;
30000;SDS011;16845;48.670;9.000;2023-12-07T01:23:11;17.20;;;10.20;;
30000;SDS011;16845;48.670;9.000;2023-12-07T01:25:42;16.73;;;9.63;;
30000;SDS011;16845;48.670;9.000;2023-12-07T01:28:10;15.98;;;10.07;;
30000;SDS011;16845;48.670;9.000;2023-12-07T01:30:36;18.27;;;9.82;;
30000;SDS011;16845;48.670;9.000;2023-12-07T01:33:03;14.90;;;10.97;;
30000;SDS011;16845;48.670;9.000;2023-12-07T01:35:29;15.73;;;11.30;;
30000;SDS011;16845;48.670;9.000;2023-12-07T01:37:56;16.15;;;10.13;;
30000;SDS011;16845;48.670;9.000;2023-12-07T01:40:22;18.13;;;11.40;;
30000;SDS011;16845;48.670;9.000;2023-12-07T01:42:49;16.60;;;11.50;;
30000;SDS011;16845;48.670;9.000;2023-12-07T01:45:18;15.93;;;11.75;;
30000;SDS011;16845;48.670;9.000;2023-12-07T01:47:45;17.52;;;11.75;;
30000;SDS011;16845;48.670;9.000;2023-12-07T01:50:13;17.77;;;11.80;;
30000;SDS011;16845;48.670;9.000;2023-12-07T01:52:41;17.05;;;11.18;;
30000;SDS011;16845;48.670;9.000;2023-12-07T01:55:10;23.95;;;11.20;;
30000;SDS011;16845;48.670;9.000;2023-12-07T01:57:39;17.38;;;11.23;;
30000;SDS011;16845;48.670;9.000;2023-12-07T02:00:06;16.60;;;10.07;;
30000;SDS011;16845;48.670;9.000;2023-12-07T02:02:35;18.40;;;11.52;;
30000;SDS011;16845;48.670;9.000;2023-12-07T02:05:02;14.27;;;8.65;;
30000;SDS011;16845;48.670;9.000;2023-12-07T02:07:30;16.80;;;9.60;;
30000;SDS011;16845;48.670;9.000;2023-12-07T02:09:57;15.68;;;10.48;;
30000;SDS011;16845;48.670;9.000;2023-12-07T02:12:24;15.20;;;9.98;;
30000;SDS011;16845;48.670;9.000;2023-12-07T02:14:51;17.42;;;9.85;;
30000;SDS011;16845;48.670;9.000;2023-12-07T02:17:18;12.70;;;8.55;;
30000;SDS011;16845;48.670;9.000;2023-12-07T02:19:56;13.95;;;8.07;;
30000;SDS011;16845;48.670;9.000;2023-12-07T02:22:28;13.63;;;8.55;;
30000;SDS011;16845;48.670;9.000;2023-12-07T02:25:04;15.45;;;8.40;;
30000;SDS011;16845;48.670;9.000;2023-12-07T02:27:37;12.10;;;7.78;;
30000;SDS011;16845;48.670;9.000;2023-12-07T02:30:05;9.77;;;8.02;;
30000;SDS011;16845;48.670;9.000;2023-12-07T02:32:32;14.20;;;7.68;;
30000;SDS011;16845;48.670;9.000;2023-12-07T02:34:59;11.73;;;7.95;;
30000;SDS011;16845;48.670;9.000;2023-12-07T02:37:27;15.13;;;7.82;;
30000;SDS011;16845;48.670;9.000;2023-12-07T02:39:58;13.73;;;8.38;;
30000;SDS011;16845;48.670;9.000;2023-12-07T02:42:25;14.75;;;8.98;;
30000;SDS011;16845;48.670;9.000;2023-12-07T02:44:54;10.15;;;7.22;;
30000;SDS011;16845;48.670;9.000;2023-12-07T02:47:21;12.95;;;8.25;;
30000;SDS011;16845;48.670;9.000;2023-12-07T02:49:47;12.52;;;7.97;;
30000;SDS011;16845;48.670;9.000;2023-12-07T02:52:14;13.13;;;8.23;;
30000;SDS011;16845;48.670;9.000;2023-12-07T02:54:41;13.57;;;9.07;;
30000;SDS011;16845;48.670;9.000;2023-12-07T02:57:07;10.63;;;7.80;;
30000;SDS011;16845;48.670;9.000;2023-12-07T02:59:34;15.20;;;9.05;;
30000;SDS011;16845;48.670;9.000;2023-12-07T03:02:02;10.85;;;7.57;;
30000;SDS011;16845;48.670;9.000;2023-12-07T03:04:29;13.85;;;8.73;;
30000;SDS011;16845;48.670;9.000;2023-12-07T03:06:56;13.90;;;8.73;;
30000;SDS011;16845;48.670;9.000;2023-12-07T03:09:22;20.63;;;10.02;;
30000;SDS011;16845;48.670;9.000;2023-12-07T03:11:49;9.23;;;6.50;;
30000;SDS011;16845;48.670;9.000;2023-12-07T03:14:16;15.00;;;8.88;;
30000;SDS011;16845;48.670;9.000;2023-12-07T03:16:42;12.90;;;9.00;;
30000;SDS011;16845;48.670;9.000;2023-12-07T03:19:10;13.67;;;9.97;;
30000;SDS011;16845;48.670;9.000;2023-12-07T03:21:38;17.15;;;9.15;;
30000;SDS011;16845;48.670;9.000;2023-12-07T03:24:06;16.55;;;9.30;;
30000;SDS011;16845;48.670;9.000;2023-12-07T03:26:33;14.50;;;9.35;;
30000;SDS011;16845;48.670;9.000;2023-12-07T03:29:00;11.90;;;9.17;;
30000;SDS011;16845;48.670;9.000;2023-12-07T03:31:27;16.17;;;9.82;;
30000;SDS011;16845;48.670;9.000;2023-12-07T03:33:53;19.05;;;9.77;;
30000;SDS011;16845;48.670;9.000;2023-12-07T03:36:21;15.98;;;9.70;;
30000;SDS011;16845;48.670;9.000;2023-12-07T03:38:48;17.30;;;9.70;;
30000;SDS011;16845;48.670;9.000;2023-12-07T03:41:15;21.80;;;10.90;;
30000;SDS011;16845;48.670;9.000;2023-12-07T03:43:42;14.35;;;10.32;;
30000;SDS011;16845;48.670;9.000;2023-12-07T03:46:08;19.40;;;10.90;;
30000;SDS011;16845;48.670;9.000;2023-12-07T03:48:35;14.18;;;10.40;;
30000;SDS011;16845;48.670;9.000;2023-12-07T03:51:02;16.67;;;10.77;;
30000;SDS011;16845;48.670;9.000;2023-12-07T03:53:30;14.95;;;11.07;;
30000;SDS011;16845;48.670;9.000;2023-12-07T03:55:56;17.85;;;11.57;;
30000;SDS011;16845;48.670;9.000;2023-12-07T03:58:23;18.08;;;12.40;;
30000;SDS011;16845;48.670;9.000;2023-12-07T04:00:50;18.35;;;11.15;;
30000;SDS011;16845;48.670;9.000;2023-12-07T04:03:16;18.20;;;12.05;;
30000;SDS011;16845;48.670;9.000;2023-12-07T04:05:43;19.10;;;12.15;;
30000;SDS011;16845;48.670;9.000;2023-12-07T04:08:10;18.70;;;11.55;;
30000;SDS011;16845;48.670;9.000;2023-12-07T04:10:37;23.98;;;13.18;;
30000;SDS011;16845;48.670;9.000;2023-12-07T04:13:04;18.30;;;12.82;;
30000;SDS011;16845;48.670;9.000;2023-12-07T04:15:31;20.73;;;12.95;;
30000;SDS011;16845;48.670;9.000;2023-12-07T04:17:57;19.67;;;12.10;;
30000;SDS011;16845;48.670;9.000;2023-12-07T04:20:24;20.80;;;12.68;;
30000;SDS011;16845;48.670;9.000;2023-12-07T04:22:50;23.77;;;12.15;;
30000;SDS011;16845;48.670;9.000;2023-12-07T04:25:17;23.10;;;12.52;;
30000;SDS011;16845;48.670;9.000;2023-12-07T04:27:45;19.58;;;12.30;;
30000;SDS011;16845;48.670;9.000;2023-12-07T04:30:12;22.48;;;13.43;;
30000;SDS011;16845;48.670;9.000;2023-12-07T04:32:38;24.30;;;12.70;;
30000;SDS011;16845;48.670;9.000;2023-12-07T04:35:05;19.92;;;13.02;;
30000;SDS011;16845;48.670;9.000;2023-12-07T04:37:32;18.33;;;11.63;;
30000;SDS011;16845;48.670;9.000;2023-12-07T04:39:59;21.98;;;12.02;;
30000;SDS011;16845;48.670;9.000;2023-12-07T04:42:25;16.70;;;11.57;;
30000;SDS011;16845;48.670;9.000;2023-12-07T04:44:53;22.35;;;12.80;;
30000;SDS011;16845;48.670;9.000;2023-12-07T04:47:20;19.58;;;12.73;;
30000;SDS011;16845;48.670;9.000;2023-12-07T04:49:46;14.10;;;10.10;;
30000;SDS011;16845;48.670;9.000;2023-12-07T04:52:14;25.23;;;13.25;;
30000;SDS011;16845;48.670;9.000;2023-12-07T04:54:41;26.27;;;14.25;;
30000;SDS011;16845;48.670;9.000;2023-12-07T04:57:07;22.35;;;13.57;;
30000;SDS011;16845;48.670;9.000;2023-12-07T04:59:34;21.27;;;13.90;;
30000;SDS011;16845;48.670;9.000;2023-12-07T05:02:05;30.90;;;14.85;;
30000;SDS011;16845;48.670;9.000;2023-12-07T05:04:32;23.98;;;14.95;;
30000;SDS011;16845;48.670;9.000;2023-12-07T05:06:59;21.17;;;14.27;;
30000;SDS011;16845;48.670;9.000;2023-12-07T05:09:25;26.80;;;13.63;;
30000;SDS011;16845;48.670;9.000;2023-12-07T05:11:52;24.23;;;14.60;;
30000;SDS011;16845;48.670;9.000;2023-12-07T05:14:18;21.37;;;13.87;;
30000;SDS011;16845;48.670;9.000;2023-12-07T05:16:45;28.83;;;15.43;;
30000;SDS011;16845;48.670;9.000;2023-12-07T05:19:13;27.73;;;15.00;;
30000;SDS011;16845;48.670;9.000;2023-12-07T05:21:40;26.70;;;15.60;;
30000;SDS011;16845;48.670;9.000;2023-12-07T05:24:06;26.45;;;16.17;;
30000;SDS011;16845;48.670;9.000;2023-12-07T05:26:33;23.35;;;15.75;;
30000;SDS011;16845;48.670;9.000;2023-12-07T05:28:59;25.13;;;15.18;;
30000;SDS011;16845;48.670;9.000;2023-12-07T05:31:26;28.00;;;15.75;;
30000;SDS011;16845;48.670;9.000;2023-12-07T05:33:53;25.15;;;16.70;;
30000;SDS011;16845;48.670;9.000;2023-12-07T05:36:20;29.80;;;16.23;;
30000;SDS011;16845;48.670;9.000;2023-12-07T05:38:47;30.75;;;16.10;;
30000;SDS011;16845;48.670;9.000;2023-12-07T05:41:13;28.02;;;15.73;;
30000;SDS011;16845;48.670;9.000;2023-12-07T05:43:40;28.55;;;16.52;;
30000;SDS011;16845;48.670;9.000;2023-12-07T05:46:07;32.10;;;16.85;;
30000;SDS011;16845;48.670;9.000;2023-12-07T05:48:33;28.25;;;16.13;;
30000;SDS011;16845;48.670;9.000;2023-12-07T05:51:01;30.85;;;16.20;;
30000;SDS011;16845;48.670;9.000;2023-12-07T05:55:55;26.50;;;15.53;;
30000;SDS011;16845;48.670;9.000;2023-12-07T05:58:22;26.30;;;14.52;;
30000;SDS011;16845;48.670;9.000;2023-12-07T06:00:48;24.23;;;15.32;;
30000;SDS011;16845;48.670;9.000;2023-12-07T06:03:15;24.85;;;14.38;;
30000;SDS011;16845;48.670;9.000;2023-12-07T06:05:42;24.77;;;15.90;;
30000;SDS011;16845;48.670;9.000;2023-12-07T06:08:08;24.77;;;14.25;;
30000;SDS011;16845;48.670;9.000;2023-12-07T06:10:36;24.80;;;15.18;;
30000;SDS011;16845;48.670;9.000;2023-12-07T06:13:03;22.05;;;13.63;;
30000;SDS011;16845;48.670;9.000;2023-12-07T06:15:29;23.45;;;14.15;;
30000;SDS011;16845;48.670;9.000;2023-12-07T06:17:57;25.70;;;15.25;;
30000;SDS011;16845;48.670;9.000;2023-12-07T06:20:24;19.65;;;12.88;;
30000;SDS011;16845;48.670;9.000;2023-12-07T06:22:51;23.52;;;13.57;;
30000;SDS011;16845;48.670;9.000;2023-12-07T06:25:17;17.10;;;11.13;;
30000;SDS011;16845;48.670;9.000;2023-12-07T06:27:45;22.63;;;13.35;;
30000;SDS011;16845;48.670;9.000;2023-12-07T06:30:12;21.50;;;13.50;;
30000;SDS011;16845;48.670;9.000;2023-12-07T06:32:39;22.05;;;13.70;;
30000;SDS011;16845;48.670;9.000;2023-12-07T06:35:05;19.10;;;10.77;;
30000;SDS011;16845;48.670;9.000;2023-12-07T06:37:33;29.08;;;13.45;;
30000;SDS011;16845;48.670;9.000;2023-12-07T06:39:59;21.70;;;13.18;;
30000;SDS011;16845;48.670;9.000;2023-12-07T06:42:26;20.30;;;13.68;;
30000;SDS011;16845;48.670;9.000;2023-12-07T06:44:54;19.35;;;12.57;;
30000;SDS011;16845;48.670;9.000;2023-12-07T06:47:20;20.98;;;13.20;;
30000;SDS011;16845;48.670;9.000;2023-12-07T06:49:47;24.63;;;15.48;;
30000;SDS011;16845;48.670;9.000;2023-12-07T06:52:18;29.85;;;14.70;;
30000;SDS011;16845;48.670;9.000;2023-12-07T06:54:45;21.92;;;14.63;;
30000;SDS011;16845;48.670;9.000;2023-12-07T06:57:11;26.63;;;15.38;;
30000;SDS011;16845;48.670;9.000;2023-12-07T06:59:38;24.40;;;14.73;;
30000;SDS011;16845;48.670;9.000;2023-12-07T07:02:06;25.08;;;15.07;;
30000;SDS011;16845;48.670;9.000;2023-12-07T07:04:33;26.48;;;14.82;;
30000;SDS011;16845;48.670;9.000;2023-12-07T07:06:59;27.45;;;13.70;;
30000;SDS011;16845;48.670;9.000;2023-12-07T07:09:26;21.65;;;14.20;;
30000;SDS011;16845;48.670;9.000;2023-12-07T07:11:52;27.88;;;13.85;;
30000;SDS011;16845;48.670;9.000;2023-12-07T07:14:19;26.35;;;15.20;;
30000;SDS011;16845;48.670;9.000;2023-12-07T07:16:45;24.33;;;15.90;;
30000;SDS011;16845;48.670;9.000;2023-12-07T07:19:14;26.25;;;14.82;;
30000;SDS011;16845;48.670;9.000;2023-12-07T07:21:40;21.88;;;14.10;;
30000;SDS011;16845;48.670;9.000;2023-12-07T07:24:07;23.70;;;14.70;;
30000;SDS011;16845;48.670;9.000;2023-12-07T07:26:35;26.95;;;15.75;;
30000;SDS011;16845;48.670;9.000;2023-12-07T07:29:02;24.60;;;14.38;;
30000;SDS011;16845;48.670;9.000;2023-12-07T07:31:28;23.98;;;14.30;;
30000;SDS011;16845;48.670;9.000;2023-12-07T07:33:55;23.40;;;14.73;;
30000;SDS011;16845;48.670;9.000;2023-12-07T07:36:28;23.92;;;15.18;;
30000;SDS011;16845;48.670;9.000;2023-12-07T07:38:54;23.70;;;14.30;;
30000;SDS011;16845;48.670;9.000;2023-12-07T07:41:21;28.02;;;15.75;;
30000;SDS011;16845;48.670;9.000;2023-12-07T07:43:48;24.75;;;15.25;;
30000;SDS011;16845;48.670;9.000;2023-12-07T07:46:14;22.90;;;15.27;;
30000;SDS011;16845;48.670;9.000;2023-12-07T07:48:41;24.67;;;14.10;;
30000;SDS011;16845;48.670;9.000;2023-12-07T07:51:08;24.92;;;15.00;;
30000;SDS011;16845;48.670;9.000;2023-12-07T07:53:35;28.58;;;16.02;;
30000;SDS011;16845;48.670;9.000;2023-12-07T07:56:02;25.50;;;15.50;;
30000;SDS011;16845;48.670;9.000;2023-12-07T07:58:29;31.80;;;16.40;;
30000;SDS011;16845;48.670;9.000;2023-12-07T08:00:56;28.20;;;16.75;;
30000;SDS011;16845;48.670;9.000;2023-12-07T08:03:22;26.63;;;15.90;;
30000;SDS011;16845;48.670;9.000;2023-12-07T08:05:49;27.05;;;16.35;;
30000;SDS011;16845;48.670;9.000;2023-12-07T08:08:15;27.35;;;15.23;;
30000;SDS011;16845;48.670;9.000;2023-12-07T08:10:43;24.10;;;14.70;;
30000;SDS011;16845;48.670;9.000;2023-12-07T08:13:21;19.77;;;13.77;;
30000;SDS011;16845;48.670;9.000;2023-12-07T08:15:48;22.08;;;14.02;;
30000;SDS011;16845;48.670;9.000;2023-12-07T08:18:15;19.60;;;12.68;;
30000;SDS011;16845;48.670;9.000;2023-12-07T08:20:42;20.50;;;13.88;;
30000;SDS011;16845;48.670;9.000;2023-12-07T08:23:08;27.70;;;16.07;;
30000;SDS011;16845;48.670;9.000;2023-12-07T08:25:35;35.40;;;21.00;;
30000;SDS011;16845;48.670;9.000;2023-12-07T08:28:03;33.03;;;19.95;;
30000;SDS011;16845;48.670;9.000;2023-12-07T08:30:29;28.75;;;18.33;;
30000;SDS011;16845;48.670;9.000;2023-12-07T08:32:56;27.57;;;16.60;;
30000;SDS011;16845;48.670;9.000;2023-12-07T08:35:23;23.17;;;15.57;;
30000;SDS011;16845;48.670;9.000;2023-12-07T08:37:49;21.43;;;14.37;;
30000;SDS011;16845;48.670;9.000;2023-12-07T08:40:16;25.23;;;15.30;;
30000;SDS011;16845;48.670;9.000;2023-12-07T08:42:44;28.98;;;16.33;;
30000;SDS011;16845;48.670;9.000;2023-12-07T08:45:16;23.25;;;13.75;;
30000;SDS011;16845;48.670;9.000;2023-12-07T08:47:42;26.60;;;14.50;;
30000;SDS011;16845;48.670;9.000;2023-12-07T08:50:09;20.48;;;12.63;;
30000;SDS011;16845;48.670;9.000;2023-12-07T08:52:35;19.13;;;12.80;;
30000;SDS011;16845;48.670;9.000;2023-12-07T08:55:13;19.77;;;11.93;;
30000;SDS011;16845;48.670;9.000;2023-12-07T08:57:39;20.05;;;12.05;;
30000;SDS011;16845;48.670;9.000;2023-12-07T09:00:06;20.10;;;12.20;;
30000;SDS011;16845;48.670;9.000;2023-12-07T09:02:35;14.95;;;11.00;;
30000;SDS011;16845;48.670;9.000;2023-12-07T09:05:13;17.10;;;11.32;;
30000;SDS011;16845;48.670;9.000;2023-12-07T09:07:39;10.88;;;7.25;;
30000;SDS011;16845;48.670;9.000;2023-12-07T09:10:06;19.90;;;11.32;;
30000;SDS011;16845;48.670;9.000;2023-12-07T09:12:34;15.77;;;11.10;;
30000;SDS011;16845;48.670;9.000;2023-12-07T09:15:05;22.15;;;11.40;;
30000;SDS011;16845;48.670;9.000;2023-12-07T09:17:33;19.73;;;11.27;;
30000;SDS011;16845;48.670;9.000;2023-12-07T09:20:01;14.55;;;9.45;;
30000;SDS011;16845;48.670;9.000;2023-12-07T09:22:27;19.35;;;10.68;;
30000;SDS011;16845;48.670;9.000;2023-12-07T09:25:03;15.00;;;10.25;;
30000;SDS011;16845;48.670;9.000;2023-12-07T09:27:30;16.02;;;9.73;;
30000;SDS011;16845;48.670;9.000;2023-12-07T09:29:56;12.37;;;9.43;;
30000;SDS011;16845;48.670;9.000;2023-12-07T09:32:23;12.20;;;8.45;;
30000;SDS011;16845;48.670;9.000;2023-12-07T09:35:03;14.15;;;7.65;;
30000;SDS011;16845;48.670;9.000;2023-12-07T09:37:30;11.38;;;8.20;;
30000;SDS011;16845;48.670;9.000;2023-12-07T09:39:56;11.47;;;7.17;;
30000;SDS011;16845;48.670;9.000;2023-12-07T09:42:23;9.07;;;6.63;;
30000;SDS011;16845;48.670;9.000;2023-12-07T09:44:56;10.57;;;6.72;;
30000;SDS011;16845;48.670;9.000;2023-12-07T09:47:24;11.25;;;7.70;;
30000;SDS011;16845;48.670;9.000;2023-12-07T09:50:03;12.90;;;7.68;;
30000;SDS011;16845;48.670;9.000;2023-12-07T09:52:30;17.02;;;9.82;;
30000;SDS011;16845;48.670;9.000;2023-12-07T09:54:57;9.80;;;6.70;;
30000;SDS011;16845;48.670;9.000;2023-12-07T09:57:25;9.63;;;6.60;;
30000;SDS011;16845;48.670;9.000;2023-12-07T09:59:56;9.60;;;6.35;;
30000;SDS011;16845;48.670;9.000;2023-12-07T10:02:22;9.33;;;6.20;;
30000;SDS011;16845;48.670;9.000;2023-12-07T10:04:50;11.33;;;5.97;;
30000;SDS011;16845;48.670;9.000;2023-12-07T10:07:32;10.32;;;5.38;;
30000;SDS011;16845;48.670;9.000;2023-12-07T10:09:59;8.88;;;5.72;;
30000;SDS011;16845;48.670;9.000;2023-12-07T10:12:25;9.05;;;5.28;;
30000;SDS011;16845;48.670;9.000;2023-12-07T10:14:52;7.03;;;5.38;;
30000;SDS011;16845;48.670;9.000;2023-12-07T10:17:18;7.35;;;5.53;;
30000;SDS011;16845;48.670;9.000;2023-12-07T10:19:45;9.40;;;5.88;;
30000;SDS011;16845;48.670;9.000;2023-12-07T10:22:16;8.53;;;5.63;;
30000;SDS011;16845;48.670;9.000;2023-12-07T10:24:42;11.95;;;5.95;;
30000;SDS011;16845;48.670;9.000;2023-12-07T10:27:09;9.75;;;6.35;;
30000;SDS011;16845;48.670;9.000;2023-12-07T10:29:36;7.33;;;5.90;;
30000;SDS011;16845;48.670;9.000;2023-12-07T10:32:04;7.53;;;6.38;;
30000;SDS011;16845;48.670;9.000;2023-12-07T10:34:31;8.63;;;6.57;;
30000;SDS011;16845;48.670;9.000;2023-12-07T10:36:58;8.52;;;6.07;;
30000;SDS011;16845;48.670;9.000;2023-12-07T10:39:26;11.10;;;5.55;;
30000;SDS011;16845;48.670;9.000;2023-12-07T10:42:01;9.05;;;5.00;;
30000;SDS011;16845;48.670;9.000;2023-12-07T10:46:55;7.07;;;5.70;;
30000;SDS011;16845;48.670;9.000;2023-12-07T10:49:23;8.15;;;4.93;;
30000;SDS011;16845;48.670;9.000;2023-12-07T10:52:01;7.23;;;4.80;;
30000;SDS011;16845;48.670;9.000;2023-12-07T10:54:36;5.63;;;4.10;;
30000;SDS011;16845;48.670;9.000;2023-12-07T10:57:09;5.07;;;3.90;;
30000;SDS011;16845;48.670;9.000;2023-12-07T10:59:38;4.95;;;3.75;;
30000;SDS011;16845;48.670;9.000;2023-12-07T11:02:06;5.93;;;4.43;;
30000;SDS011;16845;48.670;9.000;2023-12-07T11:04:36;5.15;;;3.78;;
30000;SDS011;16845;48.670;9.000;2023-12-07T11:07:05;4.15;;;2.88;;
30000;SDS011;16845;48.670;9.000;2023-12-07T11:09:38;5.20;;;3.00;;
30000;SDS011;16845;48.670;9.000;2023-12-07T11:12:11;3.65;;;3.08;;
30000;SDS011;16845;48.670;9.000;2023-12-07T11:14:43;4.78;;;3.20;;
30000;SDS011;16845;48.670;9.000;2023-12-07T11:17:09;3.90;;;2.90;;
30000;SDS011;16845;48.670;9.000;2023-12-07T11:19:48;4.43;;;3.85;;
30000;SDS011;16845;48.670;9.000;2023-12-07T11:22:15;4.90;;;3.60;;
30000;SDS011;16845;48.670;9.000;2023-12-07T11:24:56;5.43;;;3.70;;
30000;SDS011;16845;48.670;9.000;2023-12-07T11:27:24;5.53;;;3.58;;
30000;SDS011;16845;48.670;9.000;2023-12-07T11:29:51;8.65;;;3.40;;
30000;SDS011;16845;48.670;9.000;2023-12-07T11:32:18;6.10;;;3.47;;
30000;SDS011;16845;48.670;9.000;2023-12-07T11:34:54;4.85;;;3.50;;
30000;SDS011;16845;48.670;9.000;2023-12-07T11:37:20;6.10;;;3.57;;
30000;SDS011;16845;48.670;9.000;2023-12-07T11:39:47;4.63;;;3.58;;
30000;SDS011;16845;48.670;9.000;2023-12-07T11:42:16;4.33;;;3.40;;
30000;SDS011;16845;48.670;9.000;2023-12-07T11:44:44;3.35;;;2.90;;
30000;SDS011;16845;48.670;9.000;2023-12-07T11:47:15;4.18;;;3.10;;
30000;SDS011;16845;48.670;9.000;2023-12-07T11:49:44;3.60;;;2.90;;
30000;SDS011;16845;48.670;9.000;2023-12-07T11:52:14;3.50;;;3.00;;
30000;SDS011;16845;48.670;9.000;2023-12-07T11:54:44;3.30;;;2.78;;
30000;SDS011;16845;48.670;9.000;2023-12-07T11:57:11;3.38;;;2.53;;
30000;SDS011;16845;48.670;9.000;2023-12-07T11:59:40;5.75;;;2.10;;
30000;SDS011;16845;48.670;9.000;2023-12-07T12:02:07;3.88;;;3.08;;
30000;SDS011;16845;48.670;9.000;2023-12-07T12:04:33;3.23;;;2.67;;
30000;SDS011;16845;48.670;9.000;2023-12-07T12:07:00;2.50;;;2.27;;
30000;SDS011;16845;48.670;9.000;2023-12-07T12:09:26;6.47;;;2.60;;
30000;SDS011;16845;48.670;9.000;2023-12-07T12:11:58;4.05;;;2.67;;
30000;SDS011;16845;48.670;9.000;2023-12-07T12:14:25;6.97;;;2.73;;
30000;SDS011;16845;48.670;9.000;2023-12-07T12:16:54;5.75;;;2.53;;
30000;SDS011;16845;48.670;9.000;2023-12-07T12:19:21;3.45;;;2.30;;
30000;SDS011;16845;48.670;9.000;2023-12-07T12:21:58;3.95;;;2.75;;
30000;SDS011;16845;48.670;9.000;2023-12-07T12:24:30;3.75;;;2.35;;
30000;SDS011;16845;48.670;9.000;2023-12-07T12:26:56;6.60;;;3.03;;
30000;SDS011;16845;48.670;9.000;2023-12-07T12:29:23;4.20;;;2.85;;
30000;SDS011;16845;48.670;9.000;2023-12-07T12:32:01;3.38;;;2.35;;
30000;SDS011;16845;48.670;9.000;2023-12-07T12:34:27;2.42;;;1.80;;
30000;SDS011;16845;48.670;9.000;2023-12-07T12:36:55;1.97;;;1.80;;
30000;SDS011;16845;48.670;9.000;2023-12-07T12:39:26;5.88;;;2.50;;
30000;SDS011;16845;48.670;9.000;2023-12-07T12:41:55;5.70;;;2.17;;
30000;SDS011;16845;48.670;9.000;2023-12-07T12:44:22;5.65;;;2.60;;
30000;SDS011;16845;48.670;9.000;2023-12-07T12:47:02;3.30;;;2.25;;
30000;SDS011;16845;48.670;9.000;2023-12-07T12:49:34;4.45;;;2.63;;
30000;SDS011;16845;48.670;9.000;2023-12-07T12:52:01;2.72;;;2.25;;
30000;SDS011;16845;48.670;9.000;2023-12-07T12:54:30;4.00;;;2.72;;
30000;SDS011;16845;48.670;9.000;2023-12-07T12:56:58;4.68;;;3.00;;
30000;SDS011;16845;48.670;9.000;2023-12-07T12:59:25;3.40;;;2.90;;
30000;SDS011;16845;48.670;9.000;2023-12-07T13:01:51;5.43;;;3.13;;
30000;SDS011;16845;48.670;9.000;2023-12-07T13:04:19;5.72;;;4.25;;
30000;SDS011;16845;48.670;9.000;2023-12-07T13:06:46;5.65;;;3.58;;
30000;SDS011;16845;48.670;9.000;2023-12-07T13:09:12;5.00;;;3.90;;
30000;SDS011;16845;48.670;9.000;2023-12-07T13:11:39;6.28;;;4.03;;
30000;SDS011;16845;48.670;9.000;2023-12-07T13:14:05;4.40;;;3.65;;
30000;SDS011;16845;48.670;9.000;2023-12-07T13:16:32;4.82;;;4.05;;
30000;SDS011;16845;48.670;9.000;2023-12-07T13:18:59;5.23;;;4.23;;
30000;SDS011;16845;48.670;9.000;2023-12-07T13:21:27;4.90;;;3.90;;
30000;SDS011;16845;48.670;9.000;2023-12-07T13:23:53;8.13;;;4.95;;
30000;SDS011;16845;48.670;9.000;2023-12-07T13:26:20;9.13;;;4.95;;
30000;SDS011;16845;48.670;9.000;2023-12-07T13:28:47;6.82;;;4.65;;
30000;SDS011;16845;48.670;9.000;2023-12-07T13:31:14;9.88;;;4.30;;
30000;SDS011;16845;48.670;9.000;2023-12-07T13:33:40;7.40;;;4.55;;
30000;SDS011;16845;48.670;9.000;2023-12-07T13:36:20;6.88;;;4.25;;
30000;SDS011;16845;48.670;9.000;2023-12-07T13:38:48;7.27;;;3.87;;
30000;SDS011;16845;48.670;9.000;2023-12-07T13:41:15;5.95;;;4.00;;
30000;SDS011;16845;48.670;9.000;2023-12-07T13:43:41;10.85;;;4.05;;
30000;SDS011;16845;48.670;9.000;2023-12-07T13:46:08;7.53;;;4.33;;
30000;SDS011;16845;48.670;9.000;2023-12-07T13:48:35;6.82;;;4.22;;
30000;SDS011;16845;48.670;9.000;2023-12-07T13:51:01;6.60;;;4.07;;
30000;SDS011;16845;48.670;9.000;2023-12-07T13:53:28;5.93;;;3.87;;
30000;SDS011;16845;48.670;9.000;2023-12-07T13:55:56;7.88;;;3.95;;
30000;SDS011;16845;48.670;9.000;2023-12-07T13:58:22;5.68;;;3.53;;
30000;SDS011;16845;48.670;9.000;2023-12-07T14:00:49;8.02;;;4.22;;
30000;SDS011;16845;48.670;9.000;2023-12-07T14:03:15;3.77;;;3.03;;
30000;SDS011;16845;48.670;9.000;2023-12-07T14:05:42;5.83;;;3.57;;
30000;SDS011;16845;48.670;9.000;2023-12-07T14:08:09;4.47;;;2.78;;
30000;SDS011;16845;48.670;9.000;2023-12-07T14:10:35;5.57;;;3.65;;
30000;SDS011;16845;48.670;9.000;2023-12-07T14:13:03;8.13;;;3.13;;
30000;SDS011;16845;48.670;9.000;2023-12-07T14:15:30;5.00;;;3.15;;
30000;SDS011;16845;48.670;9.000;2023-12-07T14:18:10;4.63;;;3.33;;
30000;SDS011;16845;48.670;9.000;2023-12-07T14:20:37;7.20;;;4.18;;
30000;SDS011;16845;48.670;9.000;2023-12-07T14:23:23;5.57;;;3.28;;
30000;SDS011;16845;48.670;9.000;2023-12-07T14:25:50;6.88;;;3.75;;
30000;SDS011;16845;48.670;9.000;2023-12-07T14:28:18;6.80;;;4.30;;
30000;SDS011;16845;48.670;9.000;2023-12-07T14:30:44;3.40;;;2.90;;
30000;SDS011;16845;48.670;9.000;2023-12-07T14:33:11;5.65;;;3.28;;
30000;SDS011;16845;48.670;9.000;2023-12-07T14:35:38;9.05;;;4.55;;
30000;SDS011;16845;48.670;9.000;2023-12-07T14:38:04;4.10;;;3.60;;
30000;SDS011;16845;48.670;9.000;2023-12-07T14:40:31;4.57;;;3.33;;
30000;SDS011;16845;48.670;9.000;2023-12-07T14:42:57;7.25;;;3.22;;